sensor_id;sensor_type;location;lat;lon;timestamp;P1;durP1;ratioP1;P2;durP2;ratioP2
35891;SDS011;21993;42.672;23.296;2023-03-01T00:01:16;5.40;;;3.93;;
35891;SDS011;21993;42.672;23.296;2023-03-01T00:03:43;4.73;;;3.80;;
35891;SDS011;21993;42.672;23.296;2023-03-01T00:06:09;5.60;;;3.80;;
35891;SDS011;21993;42.672;23.296;2023-03-01T00:08:34;4.77;;;4.00;;
35891;SDS011;21993;42.672;23.296;2023-03-01T00:13:32;5.33;;;3.80;;
35891;SDS011;21993;42.672;23.296;2023-03-01T00:15:58;5.27;;;3.90;;
35891;SDS011;21993;42.672;23.296;2023-03-01T00:18:23;4.30;;;3.90;;
35891;SDS011;21993;42.672;23.296;2023-03-01T00:20:49;6.27;;;4.30;;
35891;SDS011;21993;42.672;23.296;2023-03-01T00:23:16;5.10;;;4.27;;
35891;SDS011;21993;42.672;23.296;2023-03-01T00:25:42;3.97;;;3.30;;
35891;SDS011;21993;42.672;23.296;2023-03-01T00:28:08;4.93;;;4.13;;
35891;SDS011;21993;42.672;23.296;2023-03-01T00:30:33;4.10;;;3.63;;
35891;SDS011;21993;42.672;23.296;2023-03-01T00:32:59;3.50;;;3.13;;
35891;SDS011;21993;42.672;23.296;2023-03-01T00:35:24;3.77;;;3.47;;
35891;SDS011;21993;42.672;23.296;2023-03-01T00:37:49;4.30;;;3.40;;
35891;SDS011;21993;42.672;23.296;2023-03-01T00:40:23;4.07;;;3.67;;
35891;SDS011;21993;42.672;23.296;2023-03-01T00:42:49;3.77;;;3.30;;
35891;SDS011;21993;42.672;23.296;2023-03-01T00:45:15;3.77;;;3.37;;
35891;SDS011;21993;42.672;23.296;2023-03-01T00:47:41;4.07;;;3.47;;
35891;SDS011;21993;42.672;23.296;2023-03-01T00:50:06;5.17;;;3.47;;
35891;SDS011;21993;42.672;23.296;2023-03-01T00:52:33;4.93;;;3.80;;
35891;SDS011;21993;42.672;23.296;2023-03-01T00:54:58;4.03;;;3.63;;
35891;SDS011;21993;42.672;23.296;2023-03-01T00:57:23;4.70;;;3.83;;
35891;SDS011;21993;42.672;23.296;2023-03-01T00:59:49;4.47;;;3.60;;
35891;SDS011;21993;42.672;23.296;2023-03-01T01:02:14;4.70;;;3.20;;
35891;SDS011;21993;42.672;23.296;2023-03-01T01:04:40;3.40;;;3.10;;
35891;SDS011;21993;42.672;23.296;2023-03-01T01:07:06;3.87;;;3.10;;
35891;SDS011;21993;42.672;23.296;2023-03-01T01:09:31;3.77;;;3.37;;
35891;SDS011;21993;42.672;23.296;2023-03-01T01:11:57;3.83;;;3.30;;
35891;SDS011;21993;42.672;23.296;2023-03-01T01:14:22;4.87;;;2.73;;
35891;SDS011;21993;42.672;23.296;2023-03-01T01:16:48;3.10;;;2.70;;
35891;SDS011;21993;42.672;23.296;2023-03-01T01:19:13;3.07;;;2.77;;
35891;SDS011;21993;42.672;23.296;2023-03-01T01:21:40;3.20;;;2.90;;
35891;SDS011;21993;42.672;23.296;2023-03-01T01:24:08;2.73;;;2.53;;
35891;SDS011;21993;42.672;23.296;2023-03-01T01:26:34;2.70;;;2.50;;
35891;SDS011;21993;42.672;23.296;2023-03-01T01:29:00;3.10;;;2.50;;
35891;SDS011;21993;42.672;23.296;2023-03-01T01:31:27;3.33;;;2.70;;
35891;SDS011;21993;42.672;23.296;2023-03-01T01:33:53;2.93;;;2.70;;
35891;SDS011;21993;42.672;23.296;2023-03-01T01:36:19;3.30;;;3.00;;
35891;SDS011;21993;42.672;23.296;2023-03-01T01:38:45;3.37;;;2.20;;
35891;SDS011;21993;42.672;23.296;2023-03-01T01:41:11;3.10;;;2.80;;
35891;SDS011;21993;42.672;23.296;2023-03-01T01:43:39;2.67;;;2.47;;
35891;SDS011;21993;42.672;23.296;2023-03-01T01:48:57;3.03;;;2.33;;
35891;SDS011;21993;42.672;23.296;2023-03-01T01:51:35;2.37;;;2.17;;
35891;SDS011;21993;42.672;23.296;2023-03-01T01:54:05;2.50;;;2.23;;
35891;SDS011;21993;42.672;23.296;2023-03-01T01:56:35;2.53;;;2.33;;
35891;SDS011;21993;42.672;23.296;2023-03-01T01:59:05;2.53;;;2.20;;
35891;SDS011;21993;42.672;23.296;2023-03-01T02:01:30;2.40;;;2.20;;
35891;SDS011;21993;42.672;23.296;2023-03-01T02:03:56;2.63;;;2.20;;
35891;SDS011;21993;42.672;23.296;2023-03-01T02:08:53;2.73;;;2.53;;
35891;SDS011;21993;42.672;23.296;2023-03-01T02:11:24;2.53;;;2.33;;
35891;SDS011;21993;42.672;23.296;2023-03-01T02:13:50;2.13;;;2.03;;
35891;SDS011;21993;42.672;23.296;2023-03-01T02:16:17;2.60;;;2.40;;
35891;SDS011;21993;42.672;23.296;2023-03-01T02:18:42;2.70;;;2.50;;
35891;SDS011;21993;42.672;23.296;2023-03-01T02:21:28;2.23;;;2.10;;
35891;SDS011;21993;42.672;23.296;2023-03-01T02:23:55;2.20;;;2.00;;
35891;SDS011;21993;42.672;23.296;2023-03-01T02:29:02;2.17;;;1.97;;
35891;SDS011;21993;42.672;23.296;2023-03-01T02:31:27;2.63;;;2.43;;
35891;SDS011;21993;42.672;23.296;2023-03-01T02:34:12;2.30;;;2.10;;
35891;SDS011;21993;42.672;23.296;2023-03-01T02:36:50;2.70;;;2.50;;
35891;SDS011;21993;42.672;23.296;2023-03-01T02:39:23;2.23;;;2.10;;
35891;SDS011;21993;42.672;23.296;2023-03-01T02:41:55;2.47;;;2.27;;
35891;SDS011;21993;42.672;23.296;2023-03-01T02:44:21;2.37;;;2.17;;
35891;SDS011;21993;42.672;23.296;2023-03-01T02:46:48;3.37;;;3.07;;
35891;SDS011;21993;42.672;23.296;2023-03-01T02:49:18;3.33;;;3.03;;
35891;SDS011;21993;42.672;23.296;2023-03-01T02:56:48;2.93;;;2.73;;
35891;SDS011;21993;42.672;23.296;2023-03-01T02:59:14;2.60;;;2.40;;
35891;SDS011;21993;42.672;23.296;2023-03-01T03:01:44;2.83;;;2.53;;
35891;SDS011;21993;42.672;23.296;2023-03-01T03:04:11;4.33;;;2.70;;
35891;SDS011;21993;42.672;23.296;2023-03-01T03:06:42;3.90;;;3.37;;
35891;SDS011;21993;42.672;23.296;2023-03-01T03:09:08;4.10;;;2.93;;
35891;SDS011;21993;42.672;23.296;2023-03-01T03:11:33;4.23;;;3.20;;
35891;SDS011;21993;42.672;23.296;2023-03-01T03:13:59;3.57;;;3.27;;
35891;SDS011;21993;42.672;23.296;2023-03-01T03:16:24;3.07;;;2.70;;
35891;SDS011;21993;42.672;23.296;2023-03-01T03:18:49;4.77;;;3.40;;
35891;SDS011;21993;42.672;23.296;2023-03-01T03:21:15;4.00;;;3.33;;
35891;SDS011;21993;42.672;23.296;2023-03-01T03:23:41;4.60;;;3.40;;
35891;SDS011;21993;42.672;23.296;2023-03-01T03:26:07;4.10;;;3.47;;
35891;SDS011;21993;42.672;23.296;2023-03-01T03:28:33;3.97;;;3.60;;
35891;SDS011;21993;42.672;23.296;2023-03-01T03:30:59;5.47;;;3.57;;
35891;SDS011;21993;42.672;23.296;2023-03-01T03:33:31;3.70;;;3.30;;
35891;SDS011;21993;42.672;23.296;2023-03-01T03:35:56;4.47;;;3.50;;
35891;SDS011;21993;42.672;23.296;2023-03-01T03:38:22;4.30;;;3.90;;
35891;SDS011;21993;42.672;23.296;2023-03-01T03:40:49;4.63;;;3.70;;
35891;SDS011;21993;42.672;23.296;2023-03-01T03:43:16;5.10;;;3.67;;
35891;SDS011;21993;42.672;23.296;2023-03-01T03:45:47;4.37;;;3.90;;
35891;SDS011;21993;42.672;23.296;2023-03-01T03:48:14;6.17;;;3.90;;
35891;SDS011;21993;42.672;23.296;2023-03-01T03:50:40;4.90;;;4.10;;
35891;SDS011;21993;42.672;23.296;2023-03-01T03:53:08;5.53;;;4.03;;
35891;SDS011;21993;42.672;23.296;2023-03-01T03:55:35;5.03;;;3.40;;
35891;SDS011;21993;42.672;23.296;2023-03-01T03:58:04;3.53;;;3.23;;
35891;SDS011;21993;42.672;23.296;2023-03-01T04:00:36;3.43;;;3.03;;
35891;SDS011;21993;42.672;23.296;2023-03-01T04:03:04;3.40;;;3.07;;
35891;SDS011;21993;42.672;23.296;2023-03-01T04:05:30;3.77;;;3.30;;
35891;SDS011;21993;42.672;23.296;2023-03-01T04:07:56;4.30;;;3.27;;
35891;SDS011;21993;42.672;23.296;2023-03-01T04:10:31;3.90;;;3.50;;
35891;SDS011;21993;42.672;23.296;2023-03-01T04:12:59;3.63;;;3.10;;
35891;SDS011;21993;42.672;23.296;2023-03-01T04:15:25;3.57;;;3.17;;
35891;SDS011;21993;42.672;23.296;2023-03-01T04:17:52;5.53;;;3.13;;
35891;SDS011;21993;42.672;23.296;2023-03-01T04:20:19;3.37;;;2.93;;
35891;SDS011;21993;42.672;23.296;2023-03-01T04:22:56;3.50;;;3.20;;
35891;SDS011;21993;42.672;23.296;2023-03-01T04:25:46;6.17;;;3.37;;
35891;SDS011;21993;42.672;23.296;2023-03-01T04:28:19;3.67;;;3.07;;
35891;SDS011;21993;42.672;23.296;2023-03-01T04:30:49;3.00;;;2.57;;
35891;SDS011;21993;42.672;23.296;2023-03-01T04:33:15;4.50;;;2.83;;
35891;SDS011;21993;42.672;23.296;2023-03-01T04:35:41;3.60;;;3.20;;
35891;SDS011;21993;42.672;23.296;2023-03-01T04:38:06;4.67;;;3.23;;
35891;SDS011;21993;42.672;23.296;2023-03-01T04:40:32;4.00;;;3.03;;
35891;SDS011;21993;42.672;23.296;2023-03-01T04:42:57;4.20;;;3.60;;
35891;SDS011;21993;42.672;23.296;2023-03-01T04:45:23;4.37;;;3.43;;
35891;SDS011;21993;42.672;23.296;2023-03-01T04:47:48;3.63;;;2.83;;
35891;SDS011;21993;42.672;23.296;2023-03-01T04:50:17;4.60;;;3.53;;
35891;SDS011;21993;42.672;23.296;2023-03-01T04:52:48;4.27;;;3.40;;
35891;SDS011;21993;42.672;23.296;2023-03-01T04:55:14;3.33;;;2.97;;
35891;SDS011;21993;42.672;23.296;2023-03-01T04:57:40;4.07;;;3.00;;
35891;SDS011;21993;42.672;23.296;2023-03-01T05:00:07;5.97;;;3.63;;
35891;SDS011;21993;42.672;23.296;2023-03-01T05:02:47;4.03;;;3.63;;
35891;SDS011;21993;42.672;23.296;2023-03-01T05:05:18;3.77;;;3.03;;
35891;SDS011;21993;42.672;23.296;2023-03-01T05:07:57;3.70;;;2.93;;
35891;SDS011;21993;42.672;23.296;2023-03-01T05:10:25;3.77;;;3.23;;
35891;SDS011;21993;42.672;23.296;2023-03-01T05:12:54;5.30;;;3.40;;
35891;SDS011;21993;42.672;23.296;2023-03-01T05:15:20;3.43;;;3.00;;
35891;SDS011;21993;42.672;23.296;2023-03-01T05:17:47;4.33;;;3.60;;
35891;SDS011;21993;42.672;23.296;2023-03-01T05:20:13;4.80;;;3.40;;
35891;SDS011;21993;42.672;23.296;2023-03-01T05:22:38;3.67;;;3.17;;
35891;SDS011;21993;42.672;23.296;2023-03-01T05:25:04;4.30;;;3.07;;
35891;SDS011;21993;42.672;23.296;2023-03-01T05:27:30;4.30;;;3.30;;
35891;SDS011;21993;42.672;23.296;2023-03-01T05:29:56;3.37;;;2.83;;
35891;SDS011;21993;42.672;23.296;2023-03-01T05:32:21;7.60;;;3.57;;
35891;SDS011;21993;42.672;23.296;2023-03-01T05:34:47;3.63;;;3.33;;
35891;SDS011;21993;42.672;23.296;2023-03-01T05:37:12;3.77;;;3.13;;
35891;SDS011;21993;42.672;23.296;2023-03-01T05:39:38;3.83;;;3.20;;
35891;SDS011;21993;42.672;23.296;2023-03-01T05:42:04;3.50;;;2.87;;
35891;SDS011;21993;42.672;23.296;2023-03-01T05:44:30;4.50;;;3.13;;
35891;SDS011;21993;42.672;23.296;2023-03-01T05:46:56;3.30;;;3.00;;
35891;SDS011;21993;42.672;23.296;2023-03-01T05:49:21;4.13;;;3.50;;
35891;SDS011;21993;42.672;23.296;2023-03-01T05:51:51;3.73;;;3.00;;
35891;SDS011;21993;42.672;23.296;2023-03-01T05:54:18;3.80;;;3.40;;
35891;SDS011;21993;42.672;23.296;2023-03-01T05:56:44;3.93;;;3.27;;
35891;SDS011;21993;42.672;23.296;2023-03-01T05:59:10;5.27;;;3.07;;
35891;SDS011;21993;42.672;23.296;2023-03-01T06:01:36;3.67;;;2.87;;
35891;SDS011;21993;42.672;23.296;2023-03-01T06:04:02;3.97;;;3.33;;
35891;SDS011;21993;42.672;23.296;2023-03-01T06:06:28;3.77;;;3.37;;
35891;SDS011;21993;42.672;23.296;2023-03-01T06:08:54;4.47;;;2.67;;
35891;SDS011;21993;42.672;23.296;2023-03-01T06:11:20;5.40;;;2.93;;
35891;SDS011;21993;42.672;23.296;2023-03-01T06:13:47;4.30;;;3.10;;
35891;SDS011;21993;42.672;23.296;2023-03-01T06:16:13;3.97;;;3.07;;
35891;SDS011;21993;42.672;23.296;2023-03-01T06:18:39;8.17;;;3.23;;
35891;SDS011;21993;42.672;23.296;2023-03-01T06:21:05;5.10;;;3.40;;
35891;SDS011;21993;42.672;23.296;2023-03-01T06:23:32;4.73;;;3.67;;
35891;SDS011;21993;42.672;23.296;2023-03-01T06:25:58;4.60;;;4.10;;
35891;SDS011;21993;42.672;23.296;2023-03-01T06:28:23;7.77;;;4.20;;
35891;SDS011;21993;42.672;23.296;2023-03-01T06:30:49;7.10;;;4.53;;
35891;SDS011;21993;42.672;23.296;2023-03-01T06:33:15;4.80;;;3.80;;
35891;SDS011;21993;42.672;23.296;2023-03-01T06:35:40;5.93;;;4.33;;
35891;SDS011;21993;42.672;23.296;2023-03-01T06:38:06;5.00;;;4.10;;
35891;SDS011;21993;42.672;23.296;2023-03-01T06:40:31;3.97;;;3.50;;
35891;SDS011;21993;42.672;23.296;2023-03-01T06:42:57;4.50;;;3.50;;
35891;SDS011;21993;42.672;23.296;2023-03-01T06:45:23;4.77;;;3.63;;
35891;SDS011;21993;42.672;23.296;2023-03-01T06:47:49;5.20;;;3.93;;
35891;SDS011;21993;42.672;23.296;2023-03-01T06:50:16;7.17;;;3.80;;
35891;SDS011;21993;42.672;23.296;2023-03-01T06:52:42;4.57;;;3.83;;
35891;SDS011;21993;42.672;23.296;2023-03-01T06:55:09;5.37;;;3.43;;
35891;SDS011;21993;42.672;23.296;2023-03-01T06:57:36;3.73;;;3.27;;
35891;SDS011;21993;42.672;23.296;2023-03-01T07:00:02;6.67;;;3.70;;
35891;SDS011;21993;42.672;23.296;2023-03-01T07:02:30;5.17;;;3.40;;
35891;SDS011;21993;42.672;23.296;2023-03-01T07:04:56;5.40;;;3.47;;
35891;SDS011;21993;42.672;23.296;2023-03-01T07:07:21;4.10;;;3.40;;
35891;SDS011;21993;42.672;23.296;2023-03-01T07:09:48;5.10;;;3.37;;
35891;SDS011;21993;42.672;23.296;2023-03-01T07:12:14;6.97;;;3.70;;
35891;SDS011;21993;42.672;23.296;2023-03-01T07:14:40;5.03;;;3.63;;
35891;SDS011;21993;42.672;23.296;2023-03-01T07:17:05;7.77;;;3.80;;
35891;SDS011;21993;42.672;23.296;2023-03-01T07:19:31;6.90;;;3.67;;
35891;SDS011;21993;42.672;23.296;2023-03-01T07:21:57;3.80;;;3.07;;
35891;SDS011;21993;42.672;23.296;2023-03-01T07:24:22;3.77;;;3.00;;
35891;SDS011;21993;42.672;23.296;2023-03-01T07:26:48;4.60;;;3.47;;
35891;SDS011;21993;42.672;23.296;2023-03-01T07:29:15;4.50;;;3.53;;
35891;SDS011;21993;42.672;23.296;2023-03-01T07:31:40;4.60;;;3.30;;
35891;SDS011;21993;42.672;23.296;2023-03-01T07:34:06;4.17;;;3.07;;
35891;SDS011;21993;42.672;23.296;2023-03-01T07:36:31;6.00;;;3.10;;
35891;SDS011;21993;42.672;23.296;2023-03-01T07:38:57;4.00;;;3.00;;
35891;SDS011;21993;42.672;23.296;2023-03-01T07:41:23;4.60;;;2.97;;
35891;SDS011;21993;42.672;23.296;2023-03-01T07:43:48;6.30;;;3.57;;
35891;SDS011;21993;42.672;23.296;2023-03-01T07:46:13;4.47;;;3.17;;
35891;SDS011;21993;42.672;23.296;2023-03-01T07:48:39;4.20;;;3.47;;
35891;SDS011;21993;42.672;23.296;2023-03-01T07:51:05;5.40;;;3.43;;
35891;SDS011;21993;42.672;23.296;2023-03-01T07:53:31;4.00;;;3.20;;
35891;SDS011;21993;42.672;23.296;2023-03-01T07:56:11;3.30;;;2.57;;
35891;SDS011;21993;42.672;23.296;2023-03-01T07:58:38;6.63;;;3.40;;
35891;SDS011;21993;42.672;23.296;2023-03-01T08:01:07;2.93;;;2.63;;
35891;SDS011;21993;42.672;23.296;2023-03-01T08:03:35;5.27;;;3.63;;
35891;SDS011;21993;42.672;23.296;2023-03-01T08:06:05;3.30;;;3.00;;
35891;SDS011;21993;42.672;23.296;2023-03-01T08:08:33;7.77;;;3.67;;
35891;SDS011;21993;42.672;23.296;2023-03-01T08:10:59;4.83;;;3.13;;
35891;SDS011;21993;42.672;23.296;2023-03-01T08:13:26;3.50;;;3.03;;
35891;SDS011;21993;42.672;23.296;2023-03-01T08:15:51;4.60;;;3.33;;
35891;SDS011;21993;42.672;23.296;2023-03-01T08:18:18;3.87;;;3.13;;
35891;SDS011;21993;42.672;23.296;2023-03-01T08:20:45;4.07;;;3.60;;
35891;SDS011;21993;42.672;23.296;2023-03-01T08:23:10;7.60;;;4.07;;
35891;SDS011;21993;42.672;23.296;2023-03-01T08:25:36;5.67;;;4.57;;
35891;SDS011;21993;42.672;23.296;2023-03-01T08:28:02;4.60;;;4.07;;
35891;SDS011;21993;42.672;23.296;2023-03-01T08:30:27;3.63;;;3.33;;
35891;SDS011;21993;42.672;23.296;2023-03-01T08:32:53;5.57;;;3.67;;
35891;SDS011;21993;42.672;23.296;2023-03-01T08:35:19;4.97;;;4.17;;
35891;SDS011;21993;42.672;23.296;2023-03-01T08:37:44;7.23;;;5.37;;
35891;SDS011;21993;42.672;23.296;2023-03-01T08:40:10;6.07;;;4.37;;
35891;SDS011;21993;42.672;23.296;2023-03-01T08:42:36;5.90;;;4.70;;
35891;SDS011;21993;42.672;23.296;2023-03-01T08:45:02;4.97;;;4.57;;
35891;SDS011;21993;42.672;23.296;2023-03-01T08:47:28;6.93;;;4.90;;
35891;SDS011;21993;42.672;23.296;2023-03-01T08:49:54;6.93;;;4.20;;
35891;SDS011;21993;42.672;23.296;2023-03-01T08:52:19;6.67;;;4.73;;
35891;SDS011;21993;42.672;23.296;2023-03-01T08:54:48;4.20;;;3.40;;
35891;SDS011;21993;42.672;23.296;2023-03-01T08:57:14;4.07;;;3.67;;
35891;SDS011;21993;42.672;23.296;2023-03-01T08:59:39;5.97;;;4.27;;
35891;SDS011;21993;42.672;23.296;2023-03-01T09:02:06;4.73;;;3.73;;
35891;SDS011;21993;42.672;23.296;2023-03-01T09:04:36;6.10;;;3.60;;
35891;SDS011;21993;42.672;23.296;2023-03-01T09:07:01;4.83;;;3.93;;
35891;SDS011;21993;42.672;23.296;2023-03-01T09:09:27;6.20;;;4.33;;
35891;SDS011;21993;42.672;23.296;2023-03-01T09:11:52;5.77;;;4.00;;
35891;SDS011;21993;42.672;23.296;2023-03-01T09:14:17;3.77;;;3.20;;
35891;SDS011;21993;42.672;23.296;2023-03-01T09:16:43;4.33;;;3.70;;
35891;SDS011;21993;42.672;23.296;2023-03-01T09:19:08;3.90;;;3.50;;
35891;SDS011;21993;42.672;23.296;2023-03-01T09:21:34;3.33;;;3.03;;
35891;SDS011;21993;42.672;23.296;2023-03-01T09:23:59;4.77;;;3.73;;
35891;SDS011;21993;42.672;23.296;2023-03-01T09:26:25;4.77;;;3.60;;
35891;SDS011;21993;42.672;23.296;2023-03-01T09:28:52;4.10;;;2.77;;
35891;SDS011;21993;42.672;23.296;2023-03-01T09:31:20;4.20;;;2.80;;
35891;SDS011;21993;42.672;23.296;2023-03-01T09:33:47;3.20;;;2.90;;
35891;SDS011;21993;42.672;23.296;2023-03-01T09:36:15;4.13;;;3.50;;
35891;SDS011;21993;42.672;23.296;2023-03-01T09:38:42;6.37;;;2.77;;
35891;SDS011;21993;42.672;23.296;2023-03-01T09:43:50;3.63;;;3.10;;
35891;SDS011;21993;42.672;23.296;2023-03-01T09:46:21;4.47;;;3.03;;
35891;SDS011;21993;42.672;23.296;2023-03-01T09:48:50;2.60;;;2.40;;
35891;SDS011;21993;42.672;23.296;2023-03-01T09:51:29;3.30;;;2.50;;
35891;SDS011;21993;42.672;23.296;2023-03-01T09:53:57;3.30;;;3.00;;
35891;SDS011;21993;42.672;23.296;2023-03-01T10:09:35;3.13;;;2.83;;
35891;SDS011;21993;42.672;23.296;2023-03-01T10:12:04;4.13;;;2.40;;
35891;SDS011;21993;42.672;23.296;2023-03-01T10:14:36;3.30;;;2.77;;
35891;SDS011;21993;42.672;23.296;2023-03-01T10:19:39;3.27;;;2.97;;
35891;SDS011;21993;42.672;23.296;2023-03-01T10:22:17;5.27;;;2.90;;
35891;SDS011;21993;42.672;23.296;2023-03-01T10:24:46;2.67;;;2.33;;
35891;SDS011;21993;42.672;23.296;2023-03-01T10:27:21;3.07;;;2.70;;
35891;SDS011;21993;42.672;23.296;2023-03-01T10:32:38;2.57;;;2.37;;
35891;SDS011;21993;42.672;23.296;2023-03-01T10:38:06;5.17;;;3.00;;
35891;SDS011;21993;42.672;23.296;2023-03-01T10:40:34;3.03;;;2.73;;
35891;SDS011;21993;42.672;23.296;2023-03-01T10:43:02;3.23;;;2.70;;
35891;SDS011;21993;42.672;23.296;2023-03-01T10:53:41;3.33;;;3.00;;
35891;SDS011;21993;42.672;23.296;2023-03-01T10:56:09;3.90;;;3.30;;
35891;SDS011;21993;42.672;23.296;2023-03-01T10:58:38;4.00;;;3.37;;
35891;SDS011;21993;42.672;23.296;2023-03-01T11:01:23;3.77;;;3.23;;
35891;SDS011;21993;42.672;23.296;2023-03-01T11:04:08;3.70;;;3.03;;
35891;SDS011;21993;42.672;23.296;2023-03-01T11:06:37;5.27;;;4.13;;
35891;SDS011;21993;42.672;23.296;2023-03-01T11:09:15;4.13;;;3.10;;
35891;SDS011;21993;42.672;23.296;2023-03-01T11:11:52;4.13;;;3.17;;
35891;SDS011;21993;42.672;23.296;2023-03-01T11:14:26;4.60;;;3.60;;
35891;SDS011;21993;42.672;23.296;2023-03-01T11:16:59;14.43;;;3.80;;
35891;SDS011;21993;42.672;23.296;2023-03-01T11:19:29;6.13;;;3.40;;
35891;SDS011;21993;42.672;23.296;2023-03-01T11:24:48;3.50;;;3.20;;
35891;SDS011;21993;42.672;23.296;2023-03-01T11:27:23;4.77;;;3.80;;
35891;SDS011;21993;42.672;23.296;2023-03-01T11:33:31;3.93;;;3.37;;
35891;SDS011;21993;42.672;23.296;2023-03-01T11:38:56;4.47;;;3.30;;
35891;SDS011;21993;42.672;23.296;2023-03-01T11:41:28;4.50;;;3.53;;
35891;SDS011;21993;42.672;23.296;2023-03-01T11:43:58;5.00;;;3.47;;
35891;SDS011;21993;42.672;23.296;2023-03-01T11:49:11;5.70;;;3.80;;
35891;SDS011;21993;42.672;23.296;2023-03-01T11:54:56;3.93;;;3.33;;
35891;SDS011;21993;42.672;23.296;2023-03-01T12:00:20;3.90;;;3.30;;
35891;SDS011;21993;42.672;23.296;2023-03-01T12:05:55;6.73;;;3.93;;
35891;SDS011;21993;42.672;23.296;2023-03-01T12:08:52;4.47;;;3.80;;
35891;SDS011;21993;42.672;23.296;2023-03-01T12:30:39;5.13;;;3.93;;
35891;SDS011;21993;42.672;23.296;2023-03-01T12:38:33;6.70;;;4.37;;
35891;SDS011;21993;42.672;23.296;2023-03-01T12:41:25;4.23;;;3.83;;
35891;SDS011;21993;42.672;23.296;2023-03-01T12:44:15;4.37;;;3.70;;
35891;SDS011;21993;42.672;23.296;2023-03-01T12:47:10;5.00;;;4.10;;
35891;SDS011;21993;42.672;23.296;2023-03-01T12:49:38;5.43;;;3.57;;
35891;SDS011;21993;42.672;23.296;2023-03-01T12:52:16;5.10;;;4.00;;
35891;SDS011;21993;42.672;23.296;2023-03-01T12:54:49;5.63;;;4.03;;
35891;SDS011;21993;42.672;23.296;2023-03-01T12:57:21;5.77;;;4.30;;
35891;SDS011;21993;42.672;23.296;2023-03-01T13:08:16;4.93;;;4.37;;
35891;SDS011;21993;42.672;23.296;2023-03-01T13:10:49;6.00;;;3.77;;
35891;SDS011;21993;42.672;23.296;2023-03-01T13:13:20;4.67;;;3.67;;
35891;SDS011;21993;42.672;23.296;2023-03-01T13:15:50;6.93;;;4.03;;
35891;SDS011;21993;42.672;23.296;2023-03-01T13:20:47;5.30;;;4.13;;
35891;SDS011;21993;42.672;23.296;2023-03-01T13:31:08;4.13;;;3.50;;
35891;SDS011;21993;42.672;23.296;2023-03-01T13:36:11;4.80;;;3.80;;
35891;SDS011;21993;42.672;23.296;2023-03-01T13:39:00;3.53;;;2.90;;
35891;SDS011;21993;42.672;23.296;2023-03-01T13:46:52;5.70;;;3.90;;
35891;SDS011;21993;42.672;23.296;2023-03-01T13:49:28;4.67;;;3.50;;
35891;SDS011;21993;42.672;23.296;2023-03-01T13:51:57;9.20;;;4.07;;
35891;SDS011;21993;42.672;23.296;2023-03-01T13:54:25;5.87;;;4.10;;
35891;SDS011;21993;42.672;23.296;2023-03-01T13:56:54;6.60;;;4.07;;
35891;SDS011;21993;42.672;23.296;2023-03-01T13:59:21;6.47;;;4.03;;
35891;SDS011;21993;42.672;23.296;2023-03-01T14:01:57;4.87;;;4.13;;
35891;SDS011;21993;42.672;23.296;2023-03-01T14:07:09;5.07;;;3.33;;
35891;SDS011;21993;42.672;23.296;2023-03-01T14:09:34;4.80;;;3.93;;
35891;SDS011;21993;42.672;23.296;2023-03-01T14:20:32;7.10;;;4.40;;
35891;SDS011;21993;42.672;23.296;2023-03-01T14:23:11;4.40;;;3.43;;
35891;SDS011;21993;42.672;23.296;2023-03-01T14:25:39;4.40;;;4.00;;
35891;SDS011;21993;42.672;23.296;2023-03-01T14:28:23;5.87;;;4.00;;
35891;SDS011;21993;42.672;23.296;2023-03-01T14:30:52;7.20;;;4.23;;
35891;SDS011;21993;42.672;23.296;2023-03-01T14:33:20;4.53;;;3.47;;
35891;SDS011;21993;42.672;23.296;2023-03-01T14:35:54;6.17;;;4.00;;
35891;SDS011;21993;42.672;23.296;2023-03-01T14:38:34;5.90;;;4.37;;
35891;SDS011;21993;42.672;23.296;2023-03-01T14:41:14;5.37;;;3.93;;
35891;SDS011;21993;42.672;23.296;2023-03-01T14:43:46;4.73;;;3.70;;
35891;SDS011;21993;42.672;23.296;2023-03-01T14:46:34;3.37;;;3.00;;
35891;SDS011;21993;42.672;23.296;2023-03-01T14:49:05;5.53;;;3.53;;
35891;SDS011;21993;42.672;23.296;2023-03-01T14:51:51;8.17;;;4.50;;
35891;SDS011;21993;42.672;23.296;2023-03-01T14:56:52;4.77;;;3.80;;
35891;SDS011;21993;42.672;23.296;2023-03-01T14:59:22;6.23;;;3.70;;
35891;SDS011;21993;42.672;23.296;2023-03-01T15:01:49;4.03;;;2.90;;
35891;SDS011;21993;42.672;23.296;2023-03-01T15:04:20;4.90;;;3.03;;
35891;SDS011;21993;42.672;23.296;2023-03-01T15:06:47;4.77;;;3.30;;
35891;SDS011;21993;42.672;23.296;2023-03-01T15:09:17;4.53;;;3.50;;
35891;SDS011;21993;42.672;23.296;2023-03-01T15:11:43;4.20;;;3.50;;
35891;SDS011;21993;42.672;23.296;2023-03-01T15:16:54;4.03;;;3.10;;
35891;SDS011;21993;42.672;23.296;2023-03-01T15:19:21;4.50;;;3.10;;
35891;SDS011;21993;42.672;23.296;2023-03-01T15:21:52;5.20;;;3.40;;
35891;SDS011;21993;42.672;23.296;2023-03-01T15:24:27;5.93;;;3.20;;
35891;SDS011;21993;42.672;23.296;2023-03-01T15:26:57;7.17;;;3.53;;
35891;SDS011;21993;42.672;23.296;2023-03-01T15:29:30;4.33;;;3.63;;
35891;SDS011;21993;42.672;23.296;2023-03-01T15:31:59;4.97;;;3.30;;
35891;SDS011;21993;42.672;23.296;2023-03-01T15:34:36;6.43;;;4.13;;
35891;SDS011;21993;42.672;23.296;2023-03-01T15:37:03;5.93;;;4.23;;
35891;SDS011;21993;42.672;23.296;2023-03-01T15:39:36;6.20;;;3.97;;
35891;SDS011;21993;42.672;23.296;2023-03-01T15:42:04;5.77;;;4.43;;
35891;SDS011;21993;42.672;23.296;2023-03-01T15:44:33;7.97;;;4.87;;
35891;SDS011;21993;42.672;23.296;2023-03-01T15:47:01;6.70;;;5.00;;
35891;SDS011;21993;42.672;23.296;2023-03-01T15:49:43;6.40;;;4.67;;
35891;SDS011;21993;42.672;23.296;2023-03-01T15:52:13;5.20;;;3.93;;
35891;SDS011;21993;42.672;23.296;2023-03-01T15:55:05;7.63;;;4.73;;
35891;SDS011;21993;42.672;23.296;2023-03-01T15:57:39;5.47;;;4.47;;
35891;SDS011;21993;42.672;23.296;2023-03-01T16:00:06;4.63;;;3.80;;
35891;SDS011;21993;42.672;23.296;2023-03-01T16:02:38;5.80;;;3.50;;
35891;SDS011;21993;42.672;23.296;2023-03-01T16:05:04;4.03;;;3.53;;
35891;SDS011;21993;42.672;23.296;2023-03-01T16:07:30;6.17;;;3.60;;
35891;SDS011;21993;42.672;23.296;2023-03-01T16:09:56;4.00;;;3.23;;
35891;SDS011;21993;42.672;23.296;2023-03-01T16:12:21;5.97;;;3.80;;
35891;SDS011;21993;42.672;23.296;2023-03-01T16:14:49;5.97;;;4.53;;
35891;SDS011;21993;42.672;23.296;2023-03-01T16:17:14;5.50;;;4.53;;
35891;SDS011;21993;42.672;23.296;2023-03-01T16:19:40;5.83;;;4.50;;
35891;SDS011;21993;42.672;23.296;2023-03-01T16:22:06;5.23;;;3.97;;
35891;SDS011;21993;42.672;23.296;2023-03-01T16:24:32;6.70;;;3.77;;
35891;SDS011;21993;42.672;23.296;2023-03-01T16:26:57;4.27;;;3.70;;
35891;SDS011;21993;42.672;23.296;2023-03-01T16:29:22;6.67;;;4.17;;
35891;SDS011;21993;42.672;23.296;2023-03-01T16:31:48;6.97;;;3.93;;
35891;SDS011;21993;42.672;23.296;2023-03-01T16:34:13;4.57;;;3.37;;
35891;SDS011;21993;42.672;23.296;2023-03-01T16:36:39;4.90;;;3.60;;
35891;SDS011;21993;42.672;23.296;2023-03-01T16:39:08;6.40;;;3.93;;
35891;SDS011;21993;42.672;23.296;2023-03-01T16:41:34;5.40;;;3.70;;
35891;SDS011;21993;42.672;23.296;2023-03-01T16:43:59;7.03;;;3.97;;
35891;SDS011;21993;42.672;23.296;2023-03-01T16:46:26;4.80;;;3.43;;
35891;SDS011;21993;42.672;23.296;2023-03-01T16:48:53;6.73;;;4.00;;
35891;SDS011;21993;42.672;23.296;2023-03-01T16:51:19;5.07;;;3.63;;
35891;SDS011;21993;42.672;23.296;2023-03-01T16:53:45;6.67;;;3.47;;
35891;SDS011;21993;42.672;23.296;2023-03-01T16:56:11;5.03;;;3.67;;
35891;SDS011;21993;42.672;23.296;2023-03-01T16:58:38;5.13;;;3.60;;